Time;durP1;ratioP1;P1;durP2;ratioP2;P2;SDS_P1;SDS_P2;PMS_P1;PMS_P2;Temp;Humidity;BMP_temperature;BMP_pressure;BME280_temperature;BME280_humidity;BME280_pressure;Samples;Min_cycle;Max_cycle;Signal;HPM_P1;HPM_P2
2021/05/31 00:01:25;;;;;;;1.60;1.50;;;13.30;99.90;;;;;;5037915;28;20028;-90
2021/05/31 00:03:50;;;;;;;1.20;1.20;;;13.40;99.90;;;;;;5037624;28;20539;-90
2021/05/31 00:06:16;;;;;;;1.20;1.20;;;13.40;99.90;;;;;;5037512;28;20032;-90
2021/05/31 00:08:42;;;;;;;1.30;1.20;;;13.50;99.90;;;;;;5037704;28;20077;-90
2021/05/31 00:11:08;;;;;;;1.55;1.42;;;13.60;99.90;;;;;;5037569;28;20025;-91
2021/05/31 00:13:34;;;;;;;1.30;1.20;;;13.60;99.90;;;;;;5055387;28;20033;-90
2021/05/31 00:16:00;;;;;;;1.13;1.10;;;13.70;99.90;;;;;;5037275;28;20111;-90
2021/05/31 00:18:25;;;;;;;1.23;1.20;;;13.70;99.90;;;;;;5037245;28;20029;-91
2021/05/31 00:20:51;;;;;;;1.38;1.27;;;13.80;99.90;;;;;;5037205;28;20032;-90
2021/05/31 00:23:19;;;;;;;1.30;1.20;;;13.80;99.90;;;;;;5037372;28;20033;-90
2021/05/31 00:25:45;;;;;;;1.30;1.20;;;13.90;99.90;;;;;;5037087;28;20048;-90
2021/05/31 00:28:12;;;;;;;1.10;1.10;;;13.90;99.90;;;;;;5038689;28;20037;-90
2021/05/31 00:30:39;;;;;;;1.17;1.10;;;13.90;99.90;;;;;;5037335;28;20059;-90
2021/05/31 00:33:05;;;;;;;1.42;1.23;;;14.00;99.90;;;;;;5037064;28;20033;-90
2021/05/31 00:35:30;;;;;;;3.00;1.20;;;14.00;99.90;;;;;;5037344;28;20504;-91
2021/05/31 00:37:56;;;;;;;1.10;1.00;;;14.00;99.90;;;;;;5054809;28;20116;-89
2021/05/31 00:40:26;;;;;;;1.92;1.10;;;14.10;99.70;;;;;;5036875;28;20359;-90
2021/05/31 00:42:52;;;;;;;3.22;1.30;;;14.10;99.50;;;;;;5036792;28;20021;-89
2021/05/31 00:45:18;;;;;;;1.08;1.05;;;14.10;99.10;;;;;;5036818;28;20033;-90
2021/05/31 00:47:44;;;;;;;1.80;1.00;;;14.10;98.90;;;;;;5036731;28;20025;-90
2021/05/31 00:50:12;;;;;;;1.77;1.10;;;14.10;98.90;;;;;;5036950;28;20474;-89
2021/05/31 00:52:38;;;;;;;1.00;0.90;;;14.10;98.60;;;;;;5036913;28;20048;-90
2021/05/31 00:55:04;;;;;;;1.65;1.10;;;14.00;98.40;;;;;;5036852;28;20474;-90
2021/05/31 00:57:30;;;;;;;1.10;0.90;;;14.00;98.30;;;;;;5054602;28;20028;-90
2021/05/31 00:59:56;;;;;;;1.10;1.00;;;13.90;98.30;;;;;;5036804;28;20036;-90
2021/05/31 01:02:25;;;;;;;4.70;0.93;;;13.90;98.20;;;;;;5036977;28;20017;-90
2021/05/31 01:04:50;;;;;;;0.82;0.82;;;13.80;98.20;;;;;;5037253;28;20033;-90
2021/05/31 01:07:36;;;;;;;1.08;1.08;;;13.70;98.60;;;;;;5036625;28;20032;-90
2021/05/31 01:10:14;;;;;;;;;;;13.70;98.90;;;;;;5036321;28;20508;-90
2021/05/31 01:13:12;;;;;;;1.48;1.10;;;13.60;99.10;;;;;;5053026;28;19912;-90
2021/05/31 01:16:09;;;;;;;1.00;0.95;;;13.70;99.20;;;;;;5036410;28;20021;-90
2021/05/31 01:18:44;;;;;;;2.10;1.00;;;13.70;99.00;;;;;;5004446;28;20041;-90
2021/05/31 01:21:28;;;;;;;;;;;13.70;99.00;;;;;;5036665;28;20029;-90
2021/05/31 01:24:11;;;;;;;2.05;1.00;;;13.70;99.00;;;;;;5052788;28;19920;-91
2021/05/31 01:27:07;;;;;;;2.00;0.80;;;13.70;98.90;;;;;;5037421;28;20025;-90
2021/05/31 01:29:33;;;;;;;2.63;1.10;;;13.80;99.00;;;;;;5053969;28;20048;-90
2021/05/31 01:32:03;;;;;;;1.20;1.15;;;13.80;99.20;;;;;;5036075;28;20024;-90
2021/05/31 01:34:33;;;;;;;1.30;1.20;;;13.80;99.10;;;;;;5036224;28;20024;-90
2021/05/31 01:37:26;;;;;;;1.13;1.10;;;13.90;99.10;;;;;;5035990;28;20108;-90
2021/05/31 01:39:56;;;;;;;0.98;0.88;;;14.00;98.90;;;;;;5032417;28;20487;-89
2021/05/31 01:42:25;;;;;;;1.00;1.00;;;14.00;98.90;;;;;;5054105;28;20445;-90
2021/05/31 01:44:54;;;;;;;1.17;1.13;;;14.10;98.80;;;;;;5053624;28;20053;-89
2021/05/31 01:47:22;;;;;;;1.70;1.33;;;14.20;98.60;;;;;;5036118;28;20045;-90
2021/05/31 01:49:48;;;;;;;1.42;1.33;;;14.20;98.70;;;;;;5035784;28;20036;-90
2021/05/31 01:52:15;;;;;;;2.30;1.35;;;14.20;98.80;;;;;;5035987;28;20031;-90
2021/05/31 01:54:44;;;;;;;1.33;1.27;;;14.20;98.80;;;;;;5036238;28;20029;-90
2021/05/31 01:57:11;;;;;;;1.38;1.27;;;14.30;98.70;;;;;;5036087;28;20037;-90
2021/05/31 01:59:37;;;;;;;2.03;1.58;;;14.30;98.60;;;;;;5036256;28;20032;-90
2021/05/31 02:02:04;;;;;;;2.20;1.35;;;14.20;98.80;;;;;;5036151;28;20082;-89
2021/05/31 02:04:30;;;;;;;2.17;1.30;;;14.30;98.90;;;;;;5035875;28;20032;-90
2021/05/31 02:06:55;;;;;;;1.45;1.20;;;14.30;99.00;;;;;;5036027;28;20028;-90
2021/05/31 02:09:22;;;;;;;1.75;1.38;;;14.30;99.00;;;;;;5035740;28;20041;-89
2021/05/31 02:12:04;;;;;;;1.17;1.17;;;14.30;99.00;;;;;;5035943;28;20029;-90
2021/05/31 02:14:54;;;;;;;1.50;1.38;;;14.40;99.00;;;;;;5036048;28;20478;-90
2021/05/31 02:17:35;;;;;;;1.35;1.20;;;14.40;98.80;;;;;;5036176;28;20025;-90
2021/05/31 02:20:13;;;;;;;1.27;1.00;;;14.40;98.90;;;;;;5035636;28;20040;-89
2021/05/31 02:22:53;;;;;;;2.35;1.20;;;14.50;98.60;;;;;;5039743;28;20377;-90
2021/05/31 02:25:19;;;;;;;1.15;1.02;;;14.50;98.30;;;;;;5039685;28;20025;-89
2021/05/31 02:27:50;;;;;;;1.30;1.20;;;14.50;98.20;;;;;;5041328;28;20078;-90
2021/05/31 02:30:18;;;;;;;1.30;1.20;;;14.40;98.20;;;;;;5039876;28;20431;-90
2021/05/31 02:32:57;;;;;;;1.40;1.30;;;14.40;98.40;;;;;;5039885;28;20063;-90
2021/05/31 02:35:26;;;;;;;1.15;1.05;;;14.50;98.40;;;;;;5039803;28;20024;-90
2021/05/31 02:37:52;;;;;;;1.27;1.20;;;14.50;98.50;;;;;;5039821;28;20386;-90
2021/05/31 02:40:21;;;;;;;1.17;1.17;;;14.50;98.40;;;;;;5039388;28;20017;-89
2021/05/31 02:42:49;;;;;;;1.30;1.20;;;14.50;98.40;;;;;;5039467;28;20033;-90
2021/05/31 02:45:17;;;;;;;1.88;1.40;;;14.60;98.50;;;;;;5039090;28;20021;-90
2021/05/31 02:47:46;;;;;;;1.42;1.33;;;14.60;98.60;;;;;;5039327;28;20037;-90
2021/05/31 02:50:12;;;;;;;2.13;1.23;;;14.70;98.60;;;;;;5039255;28;20120;-89
2021/05/31 02:52:41;;;;;;;2.17;0.95;;;14.70;98.50;;;;;;5039379;28;20033;-90
2021/05/31 02:55:12;;;;;;;1.40;1.17;;;14.70;98.30;;;;;;5038968;28;20067;-89
2021/05/31 02:57:39;;;;;;;1.33;1.23;;;14.80;98.30;;;;;;5039119;28;20116;-89
2021/05/31 03:00:08;;;;;;;1.83;1.20;;;14.90;98.20;;;;;;5039107;28;20057;-91
2021/05/31 03:02:34;;;;;;;1.83;1.40;;;14.90;98.10;;;;;;5057354;28;20108;-89
2021/05/31 03:05:00;;;;;;;1.42;1.33;;;14.90;97.90;;;;;;5039304;28;20055;-89
2021/05/31 03:07:26;;;;;;;2.50;1.08;;;14.90;98.00;;;;;;5039600;28;20455;-90
2021/05/31 03:09:52;;;;;;;1.92;1.20;;;15.00;97.90;;;;;;5039890;28;20059;-89
2021/05/31 03:12:18;;;;;;;1.67;1.40;;;15.00;97.90;;;;;;5040579;28;20036;-90
2021/05/31 03:14:44;;;;;;;1.63;1.20;;;15.00;97.90;;;;;;5041777;28;20025;-89
2021/05/31 03:17:10;;;;;;;3.78;1.23;;;15.10;97.70;;;;;;5041305;28;20029;-89
2021/05/31 03:19:36;;;;;;;1.52;1.42;;;15.10;97.50;;;;;;5042090;28;20404;-90
2021/05/31 03:22:02;;;;;;;1.30;1.20;;;15.10;97.40;;;;;;5039730;28;20044;-90
2021/05/31 03:24:28;;;;;;;1.27;1.20;;;15.00;97.40;;;;;;5056582;28;20099;-90
2021/05/31 03:26:54;;;;;;;1.35;1.25;;;15.00;97.30;;;;;;5041582;28;20446;-90
2021/05/31 03:29:19;;;;;;;1.20;1.10;;;15.00;97.40;;;;;;5039205;28;20355;-90
2021/05/31 03:31:45;;;;;;;1.27;1.20;;;15.00;97.40;;;;;;5039081;28;20482;-90
2021/05/31 03:34:11;;;;;;;2.17;1.45;;;15.00;97.30;;;;;;5038342;28;20025;-90
2021/05/31 03:36:37;;;;;;;1.45;1.23;;;15.00;97.30;;;;;;5039383;28;20037;-90
2021/05/31 03:39:07;;;;;;;1.67;1.40;;;15.00;97.40;;;;;;5057082;28;20029;-90
2021/05/31 03:41:33;;;;;;;2.65;1.85;;;15.10;97.40;;;;;;5038228;28;20037;-90
2021/05/31 03:43:59;;;;;;;1.98;1.70;;;15.20;97.00;;;;;;5038495;28;20024;-90
2021/05/31 03:46:25;;;;;;;1.70;1.60;;;15.20;96.80;;;;;;5042447;28;20032;-90
2021/05/31 03:48:52;;;;;;;1.88;1.38;;;15.20;96.80;;;;;;5038007;28;20048;-90
2021/05/31 03:51:18;;;;;;;1.38;1.27;;;15.30;96.80;;;;;;5039494;28;20502;-90
2021/05/31 03:53:44;;;;;;;2.17;1.40;;;15.30;96.60;;;;;;5038449;28;20043;-90
2021/05/31 03:56:10;;;;;;;2.97;1.33;;;15.30;96.20;;;;;;5040095;28;20033;-90
2021/05/31 03:58:37;;;;;;;2.22;1.50;;;15.40;96.10;;;;;;5038695;28;20399;-90
2021/05/31 04:01:03;;;;;;;1.30;1.15;;;15.40;95.90;;;;;;5039388;28;20033;-90
2021/05/31 04:03:29;;;;;;;3.05;1.42;;;15.40;95.90;;;;;;5038070;28;20493;-90
2021/05/31 04:14:20;;;;;;;4.20;1.65;;;15.60;95.30;;;;;;5055928;28;20390;-90
2021/05/31 04:16:49;;;;;;;;;;;15.70;94.80;;;;;;5038607;28;20037;-89
2021/05/31 04:19:19;;;;;;;1.63;1.52;;;15.60;94.70;;;;;;5037729;28;20365;-89
2021/05/31 04:21:47;;;;;;;2.83;1.77;;;15.70;94.70;;;;;;5057133;28;20032;-90
2021/05/31 04:24:13;;;;;;;1.42;1.30;;;15.70;94.40;;;;;;5038906;28;20435;-90
2021/05/31 04:26:41;;;;;;;1.65;1.55;;;15.70;94.30;;;;;;5039669;28;20037;-90
2021/05/31 04:29:08;;;;;;;1.40;1.30;;;15.80;94.20;;;;;;5037534;28;20049;-90
2021/05/31 04:31:35;;;;;;;1.95;1.60;;;15.80;93.90;;;;;;5037170;28;20028;-91
2021/05/31 04:34:03;;;;;;;1.67;1.35;;;15.80;93.60;;;;;;5038282;28;20032;-90
2021/05/31 04:36:29;;;;;;;1.35;1.23;;;15.70;92.50;;;;;;5035453;28;20037;-91
2021/05/31 04:38:55;;;;;;;1.20;1.10;;;15.60;92.70;;;;;;5035528;28;20051;-90
2021/05/31 04:41:20;;;;;;;1.60;1.50;;;15.50;93.00;;;;;;5037038;28;20041;-90
2021/05/31 04:43:46;;;;;;;2.10;1.40;;;15.50;92.80;;;;;;5035558;28;20382;-90
2021/05/31 04:46:12;;;;;;;3.65;1.90;;;15.50;93.00;;;;;;5034876;28;20474;-90
2021/05/31 04:48:37;;;;;;;2.15;1.67;;;15.40;93.40;;;;;;5035382;28;20033;-89
2021/05/31 04:51:04;;;;;;;1.50;1.40;;;15.40;93.40;;;;;;5041804;28;20047;-91
2021/05/31 04:53:31;;;;;;;1.10;1.10;;;15.40;93.40;;;;;;5040455;28;20025;-89
2021/05/31 04:56:03;;;;;;;1.63;1.42;;;15.40;93.00;;;;;;5037694;28;20029;-89
2021/05/31 04:58:28;;;;;;;1.77;1.10;;;15.40;93.00;;;;;;5038946;28;20480;-89
2021/05/31 05:00:55;;;;;;;0.85;0.85;;;15.50;92.70;;;;;;5040232;28;20052;-89
2021/05/31 05:03:21;;;;;;;2.45;1.10;;;15.50;92.30;;;;;;5053214;28;20097;-90
2021/05/31 05:05:48;;;;;;;2.92;1.10;;;15.50;92.00;;;;;;5037972;28;20104;-90
2021/05/31 05:08:15;;;;;;;2.00;1.55;;;15.50;92.10;;;;;;5037546;28;20037;-90
2021/05/31 05:10:40;;;;;;;2.00;1.80;;;15.50;92.10;;;;;;5039548;28;20047;-90
2021/05/31 05:13:13;;;;;;;4.65;1.77;;;15.50;92.10;;;;;;5043385;28;20196;-90
2021/05/31 05:15:39;;;;;;;1.60;1.50;;;15.50;92.60;;;;;;5037112;28;20458;-91
2021/05/31 05:18:05;;;;;;;1.77;1.67;;;15.50;92.70;;;;;;5039412;28;20025;-90
2021/05/31 05:21:00;;;;;;;;;;;;;;;;;;;;;
2021/05/31 05:24:06;;;;;;;3.65;1.70;;;15.50;92.50;;;;;;5056045;28;20139;-91
2021/05/31 05:26:41;;;;;;;;;;;15.50;92.50;;;;;;4966173;28;20027;-91
2021/05/31 05:29:13;;;;;;;5.13;2.15;;;15.40;92.70;;;;;;5039980;28;19955;-92
2021/05/31 05:32:30;;;;;;;2.22;1.55;;;15.40;92.80;;;;;;5283829;22;20092;-93
2021/05/31 05:35:09;;;;;;;2.88;1.60;;;15.50;92.30;;;;;;5043201;28;20056;-92
2021/05/31 05:37:53;;;;;;;3.30;1.80;;;15.50;92.50;;;;;;5049482;28;20104;-92
2021/05/31 05:44:45;;;;;;;4.82;1.75;;;15.70;92.20;;;;;;4990810;28;20017;-93
2021/05/31 05:47:49;;;;;;;4.38;1.75;;;15.80;91.50;;;;;;4916645;29;20037;-92
2021/05/31 05:50:23;;;;;;;1.55;1.38;;;15.80;91.90;;;;;;4911448;29;20036;-88
2021/05/31 05:52:57;;;;;;;5.65;2.53;;;16.00;92.20;;;;;;4907925;29;20059;-89
2021/05/31 05:55:27;;;;;;;3.15;2.38;;;16.10;91.60;;;;;;4969469;28;20046;-89
2021/05/31 05:58:00;;;;;;;4.75;2.70;;;16.10;90.90;;;;;;4969619;28;20038;-91
2021/05/31 06:00:30;;;;;;;5.13;2.35;;;16.10;91.00;;;;;;4981498;28;20051;-88
2021/05/31 06:03:42;;;;;;;;;;;;;;;;;;;;;
2021/05/31 06:06:22;;;;;;;17.13;4.82;;;16.20;90.70;;;;;;5061358;28;20552;-93
2021/05/31 06:11:50;;;;;;;;;;;;;;;;;;;;;
2021/05/31 06:33:52;;;;;;;3.92;1.80;;;16.70;86.00;;;;;;5087261;28;20049;-93
2021/05/31 06:36:30;;;;;;;2.47;1.90;;;16.70;85.80;;;;;;5067495;28;20060;-89
2021/05/31 06:38:58;;;;;;;4.35;2.13;;;16.80;85.70;;;;;;5085418;28;20055;-91
2021/05/31 06:41:25;;;;;;;2.03;1.83;;;16.80;85.80;;;;;;5066707;28;20033;-90
2021/05/31 06:43:55;;;;;;;2.40;1.67;;;16.80;84.80;;;;;;5069884;28;20079;-91
2021/05/31 06:46:32;;;;;;;3.10;1.90;;;16.80;84.60;;;;;;5071331;28;20078;-92
2021/05/31 06:49:14;;;;;;;2.25;1.52;;;16.70;84.20;;;;;;5074703;28;20052;-94
2021/05/31 06:51:54;;;;;;;2.72;2.15;;;16.70;85.00;;;;;;5075772;28;20040;-92
2021/05/31 06:54:24;;;;;;;5.25;2.30;;;16.60;85.50;;;;;;5073143;28;20025;-91
2021/05/31 06:56:53;;;;;;;4.40;2.45;;;16.70;85.80;;;;;;5071400;28;20036;-90
2021/05/31 07:05:28;;;;;;;3.60;2.40;;;16.70;83.90;;;;;;5727301;22;20036;-91
2021/05/31 07:08:02;;;;;;;2.13;1.88;;;16.60;83.80;;;;;;5052919;28;20036;-92
2021/05/31 07:11:05;;;;;;;2.20;2.00;;;16.50;83.90;;;;;;5053985;28;20056;-91
2021/05/31 07:20:09;;;;;;;4.80;2.00;;;16.50;84.30;;;;;;5035484;28;20517;-91
2021/05/31 07:22:40;;;;;;;2.80;2.15;;;16.60;83.80;;;;;;5030905;28;20122;-90
2021/05/31 07:25:14;;;;;;;3.17;2.10;;;16.70;83.40;;;;;;5030775;28;20101;-90
2021/05/31 07:27:47;;;;;;;;;;;16.70;84.00;;;;;;5033069;28;20025;-92
2021/05/31 07:30:25;;;;;;;2.47;1.98;;;16.80;83.50;;;;;;5048016;28;19921;-94
2021/05/31 07:33:01;;;;;;;4.28;1.75;;;17.00;83.40;;;;;;5027337;28;20041;-92
2021/05/31 07:38:21;;;;;;;2.05;1.58;;;17.30;80.90;;;;;;5827263;22;20049;-91
2021/05/31 07:47:00;;;;;;;1.85;1.63;;;17.50;78.60;;;;;;4600499;22;20055;31
2021/05/31 07:53:21;;;;;;;3.40;1.90;;;17.70;76.70;;;;;;5027131;28;20041;-90
2021/05/31 07:56:32;;;;;;;1.83;1.73;;;17.70;77.40;;;;;;4953752;29;20103;-89
2021/05/31 07:59:46;;;;;;;2.72;1.90;;;17.80;77.10;;;;;;5048411;28;20100;-92
2021/05/31 08:07:22;;;;;;;5.57;2.05;;;18.30;75.60;;;;;;5049420;28;20053;-90
2021/05/31 08:10:45;;;;;;;;;;;;;;;;;;;;;
2021/05/31 08:16:52;;;;;;;2.05;1.55;;;18.40;73.40;;;;;;5097967;22;20049;-90
2021/05/31 08:19:21;;;;;;;2.50;1.42;;;18.40;74.10;;;;;;5040700;28;20044;-89
2021/05/31 08:21:49;;;;;;;2.95;1.80;;;18.40;73.80;;;;;;5043390;28;20112;-90
2021/05/31 08:24:20;;;;;;;1.83;1.40;;;18.40;73.40;;;;;;5063443;28;20033;-90
2021/05/31 08:26:46;;;;;;;1.52;1.25;;;18.50;72.50;;;;;;5040655;28;20021;-91
2021/05/31 08:29:13;;;;;;;1.42;1.33;;;18.40;72.00;;;;;;5043349;28;20037;-91
2021/05/31 08:31:42;;;;;;;2.70;1.40;;;18.30;72.10;;;;;;5030039;28;20035;-91
2021/05/31 08:34:13;;;;;;;1.92;1.20;;;18.20;72.20;;;;;;5054018;28;20033;-92
2021/05/31 08:36:44;;;;;;;3.25;1.38;;;18.00;72.50;;;;;;5052100;28;20033;-91
2021/05/31 08:39:42;;;;;;;2.58;1.42;;;17.90;72.70;;;;;;5086869;22;20083;-90
2021/05/31 08:54:25;;;;;;;1.38;1.23;;;17.30;73.00;;;;;;5030927;28;20703;-91
2021/05/31 08:57:06;;;;;;;1.85;1.50;;;17.20;72.60;;;;;;5007397;28;20058;-91
2021/05/31 09:00:06;;;;;;;1.15;1.10;;;17.20;73.40;;;;;;4988737;28;20037;-89
2021/05/31 09:17:47;;;;;;;0.95;0.80;;;17.00;73.70;;;;;;5077969;28;20048;-90
2021/05/31 09:20:15;;;;;;;1.15;1.00;;;17.10;74.00;;;;;;5062786;28;20045;-90
2021/05/31 09:22:55;;;;;;;1.08;1.00;;;17.20;74.20;;;;;;5060881;28;20064;-91
2021/05/31 09:25:29;;;;;;;6.75;1.40;;;17.30;73.20;;;;;;5044415;28;20065;-90
2021/05/31 09:27:56;;;;;;;3.88;1.40;;;17.40;74.00;;;;;;5066920;28;20040;-92
2021/05/31 09:30:46;;;;;;;1.40;1.17;;;17.50;73.50;;;;;;5064051;28;20033;-92
2021/05/31 09:33:16;;;;;;;1.10;1.00;;;17.70;72.60;;;;;;5057243;28;20327;-91
2021/05/31 09:41:48;;;;;;;1.10;1.00;;;17.80;71.40;;;;;;5408352;22;20064;-92
2021/05/31 09:44:17;;;;;;;1.77;1.20;;;17.80;70.60;;;;;;5058846;28;20037;-90
2021/05/31 09:46:51;;;;;;;1.13;1.02;;;17.80;71.20;;;;;;5059142;22;20056;-93
2021/05/31 10:17:40;;;;;;;1.33;0.98;;;19.80;66.00;;;;;;5091346;22;19921;-90
2021/05/31 10:20:10;;;;;;;0.70;0.70;;;19.80;65.70;;;;;;5040886;28;20037;-92
2021/05/31 10:22:37;;;;;;;0.82;0.70;;;20.10;65.60;;;;;;5040138;28;20044;-88
2021/05/31 10:25:18;;;;;;;3.20;1.02;;;20.30;65.20;;;;;;5058595;28;20045;-90
2021/05/31 10:32:51;;;;;;;1.30;0.80;;;20.30;63.80;;;;;;5059173;28;20048;-92
2021/05/31 10:35:30;;;;;;;;;;;;;;;;;;;;;
2021/05/31 10:37:59;;;;;;;1.00;0.85;;;20.20;63.60;;;;;;5060746;28;20455;-90
2021/05/31 10:40:36;;;;;;;0.80;0.80;;;20.10;63.40;;;;;;5041934;28;20069;-91
2021/05/31 10:43:07;;;;;;;3.13;1.20;;;20.20;63.50;;;;;;5032665;28;20381;-91
2021/05/31 10:49:08;;;;;;;1.95;0.80;;;20.30;63.00;;;;;;5140980;22;20059;-91
2021/05/31 10:51:41;;;;;;;2.65;1.20;;;20.40;61.60;;;;;;5066620;28;20055;-90
2021/05/31 10:54:12;;;;;;;0.60;0.60;;;20.40;62.80;;;;;;5071940;28;20043;-91
2021/05/31 10:56:43;;;;;;;1.35;0.70;;;20.60;62.70;;;;;;5065798;28;20215;-91
2021/05/31 10:59:15;;;;;;;1.48;0.57;;;20.80;61.20;;;;;;5066638;28;20497;-88
2021/05/31 11:01:44;;;;;;;0.80;0.55;;;20.80;61.30;;;;;;5063946;28;20408;-90
2021/05/31 11:04:19;;;;;;;0.63;0.50;;;20.80;61.10;;;;;;5068228;28;20037;-90
2021/05/31 11:06:55;;;;;;;1.23;0.77;;;20.70;61.00;;;;;;5066131;28;20036;-91
2021/05/31 11:09:34;;;;;;;0.40;0.40;;;20.70;61.00;;;;;;5063700;28;20131;-92
2021/05/31 11:12:04;;;;;;;0.77;0.73;;;20.60;61.20;;;;;;5061926;28;20178;-89
2021/05/31 11:17:30;;;;;;;1.80;0.80;;;20.30;61.00;;;;;;5063752;28;20036;-89
2021/05/31 11:20:27;;;;;;;1.20;1.10;;;20.10;61.40;;;;;;5063272;28;20063;-91
2021/05/31 11:25:47;;;;;;;0.70;0.70;;;19.60;61.60;;;;;;5251652;22;20486;-91
2021/05/31 11:28:20;;;;;;;0.70;0.70;;;19.30;62.20;;;;;;5062642;28;20033;-91
2021/05/31 11:30:47;;;;;;;0.70;0.70;;;19.00;62.70;;;;;;5065567;28;20394;-90
2021/05/31 11:33:17;;;;;;;3.25;0.70;;;18.80;63.10;;;;;;5050539;28;20041;-91
2021/05/31 11:35:46;;;;;;;0.70;0.70;;;18.60;63.20;;;;;;5060735;28;20060;-90
2021/05/31 11:38:19;;;;;;;0.77;0.70;;;18.30;63.70;;;;;;5045726;28;20041;-90
2021/05/31 11:41:12;;;;;;;0.63;0.60;;;18.20;64.20;;;;;;5068921;28;20018;-90
2021/05/31 11:44:05;;;;;;;1.63;0.75;;;18.20;64.60;;;;;;5046389;28;20047;-90
2021/05/31 11:46:45;;;;;;;2.40;0.85;;;18.20;64.80;;;;;;5046997;28;20156;-92
2021/05/31 11:49:13;;;;;;;1.17;0.52;;;18.30;65.10;;;;;;5051343;28;20466;-91
2021/05/31 11:51:42;;;;;;;2.22;0.93;;;18.40;64.60;;;;;;5066009;28;20033;-88
2021/05/31 11:54:12;;;;;;;0.40;0.40;;;18.50;64.40;;;;;;5063727;28;20057;-90
2021/05/31 11:56:39;;;;;;;1.17;0.70;;;18.70;64.00;;;;;;5063282;28;20501;-88
2021/05/31 11:59:08;;;;;;;0.63;0.50;;;18.80;63.70;;;;;;5065070;28;20033;-90
2021/05/31 12:01:35;;;;;;;0.93;0.68;;;18.80;63.70;;;;;;5065935;28;20438;-90
2021/05/31 12:04:09;;;;;;;0.52;0.50;;;18.80;63.70;;;;;;5065612;28;20076;-90
2021/05/31 12:06:39;;;;;;;0.52;0.52;;;18.80;63.50;;;;;;5059011;28;20041;-90
2021/05/31 12:09:17;;;;;;;2.10;0.50;;;18.80;63.30;;;;;;5059720;28;20064;-91
2021/05/31 12:11:45;;;;;;;1.92;0.60;;;18.80;63.10;;;;;;5063678;28;20025;-88
2021/05/31 12:14:19;;;;;;;1.30;0.80;;;18.80;63.50;;;;;;5060856;28;20029;-91
2021/05/31 12:16:59;;;;;;;1.85;0.60;;;18.90;63.40;;;;;;5057196;28;20052;-91
2021/05/31 12:19:29;;;;;;;2.10;0.43;;;19.20;63.40;;;;;;5054803;28;20152;-89
2021/05/31 12:22:01;;;;;;;1.55;0.40;;;19.40;63.30;;;;;;5037064;28;20040;-93
2021/05/31 12:24:35;;;;;;;0.75;0.70;;;19.60;62.40;;;;;;5054993;28;20068;-89
2021/05/31 12:27:03;;;;;;;0.40;0.40;;;19.50;62.00;;;;;;5041254;28;20096;-90
2021/05/31 12:29:36;;;;;;;0.82;0.60;;;19.40;62.30;;;;;;5054379;28;20564;-91
2021/05/31 12:32:09;;;;;;;0.88;0.68;;;19.20;62.70;;;;;;5057344;28;20036;-91
2021/05/31 12:34:37;;;;;;;0.43;0.43;;;19.00;63.40;;;;;;5056537;28;20140;-89
2021/05/31 12:37:05;;;;;;;0.73;0.57;;;18.90;63.70;;;;;;5054427;28;20044;-90
2021/05/31 12:39:31;;;;;;;0.50;0.50;;;18.80;63.50;;;;;;5040837;28;20041;-91
2021/05/31 12:42:04;;;;;;;2.47;0.60;;;18.70;64.00;;;;;;5056339;28;20036;-92
2021/05/31 12:44:30;;;;;;;0.93;0.60;;;18.70;64.20;;;;;;5057299;28;20037;-89
2021/05/31 12:47:10;;;;;;;1.60;1.50;;;18.70;64.50;;;;;;5054318;28;20025;-90
2021/05/31 12:49:47;;;;;;;2.95;1.33;;;18.80;64.20;;;;;;5055643;28;20132;-91
2021/05/31 12:52:14;;;;;;;1.33;1.17;;;18.80;64.40;;;;;;5060527;28;20101;-90
2021/05/31 12:54:40;;;;;;;1.65;1.10;;;18.70;64.70;;;;;;5041255;28;20048;-91
2021/05/31 12:57:17;;;;;;;2.80;0.82;;;18.80;64.70;;;;;;5042654;28;20033;-91
2021/05/31 12:59:48;;;;;;;1.00;0.90;;;18.80;64.60;;;;;;5042630;28;20061;-89
2021/05/31 13:02:19;;;;;;;1.20;0.60;;;18.90;64.10;;;;;;5060383;28;20029;-89
2021/05/31 13:04:46;;;;;;;1.40;0.52;;;18.90;63.50;;;;;;5061510;28;20074;-90
2021/05/31 13:07:19;;;;;;;0.50;0.50;;;18.80;63.40;;;;;;5055523;28;20142;-90
2021/05/31 13:09:51;;;;;;;0.85;0.55;;;18.70;63.20;;;;;;5058920;28;20052;-91
2021/05/31 13:12:17;;;;;;;0.50;0.47;;;18.50;63.50;;;;;;5058994;28;20508;-91
2021/05/31 13:14:44;;;;;;;0.82;0.80;;;18.30;63.70;;;;;;5039746;28;20124;-91
2021/05/31 13:17:11;;;;;;;0.52;0.40;;;18.10;64.10;;;;;;5056509;28;20494;-91
2021/05/31 13:19:42;;;;;;;0.40;0.40;;;18.10;64.20;;;;;;5040338;28;20036;-92
2021/05/31 13:22:19;;;;;;;2.25;0.60;;;17.90;64.40;;;;;;5060031;28;20037;-91
2021/05/31 13:24:53;;;;;;;0.50;0.50;;;17.80;65.20;;;;;;5038739;28;20041;-91
2021/05/31 13:27:26;;;;;;;1.42;0.50;;;17.80;65.80;;;;;;5041856;28;20033;-89
2021/05/31 13:30:12;;;;;;;0.95;0.50;;;17.90;65.60;;;;;;5047172;28;20091;-90
2021/05/31 13:32:38;;;;;;;1.23;0.60;;;17.90;65.10;;;;;;5042486;28;20041;-90
2021/05/31 13:35:13;;;;;;;0.60;0.60;;;17.90;65.50;;;;;;5041864;28;20033;-88
2021/05/31 13:37:53;;;;;;;0.50;0.50;;;18.10;65.30;;;;;;5055696;28;20040;-90
2021/05/31 13:40:46;;;;;;;1.13;0.88;;;18.20;64.90;;;;;;5057806;28;20471;-90
2021/05/31 13:43:20;;;;;;;0.68;0.68;;;18.50;64.90;;;;;;5057603;28;20402;-91
2021/05/31 13:45:48;;;;;;;0.88;0.73;;;18.80;64.40;;;;;;5056786;28;20179;-90
2021/05/31 13:48:16;;;;;;;2.33;0.50;;;19.00;63.70;;;;;;5056023;28;20037;-91
2021/05/31 13:50:45;;;;;;;1.13;0.50;;;19.70;63.00;;;;;;5056392;28;20489;-91
2021/05/31 13:53:12;;;;;;;0.95;0.30;;;20.30;60.80;;;;;;5037943;28;20040;-92
2021/05/31 13:55:38;;;;;;;4.10;0.40;;;20.60;60.30;;;;;;5058098;28;20045;-91
2021/05/31 13:58:08;;;;;;;1.75;0.32;;;20.90;59.10;;;;;;5040342;28;20041;-92
2021/05/31 14:00:35;;;;;;;0.43;0.40;;;21.00;58.60;;;;;;5038927;28;20124;-91
2021/05/31 14:03:02;;;;;;;0.57;0.30;;;21.10;57.80;;;;;;5057466;28;20041;-92
2021/05/31 14:05:36;;;;;;;0.95;0.50;;;20.90;57.20;;;;;;5058765;28;20029;-90
2021/05/31 14:08:03;;;;;;;0.70;0.35;;;20.70;57.80;;;;;;5054727;28;20044;-91
2021/05/31 14:10:30;;;;;;;1.75;0.30;;;20.40;57.30;;;;;;5055896;28;20087;-91
2021/05/31 14:12:59;;;;;;;0.35;0.28;;;20.10;58.00;;;;;;5057325;28;20036;-91
2021/05/31 14:15:25;;;;;;;0.50;0.40;;;19.80;58.60;;;;;;5058020;28;20033;-89
2021/05/31 14:17:52;;;;;;;3.60;0.30;;;19.60;58.80;;;;;;5059085;28;20044;-91
2021/05/31 14:20:18;;;;;;;0.95;0.43;;;19.40;59.10;;;;;;5064266;28;20358;-90
2021/05/31 14:22:45;;;;;;;1.30;0.80;;;19.10;59.80;;;;;;5043246;28;20037;-90
2021/05/31 14:25:13;;;;;;;0.70;0.52;;;18.90;60.50;;;;;;5058952;28;20124;-90
2021/05/31 14:27:40;;;;;;;0.63;0.60;;;18.70;61.10;;;;;;5045047;28;20037;-90
2021/05/31 14:30:08;;;;;;;0.55;0.55;;;18.60;61.60;;;;;;5060746;28;20090;-90
2021/05/31 14:32:34;;;;;;;0.38;0.38;;;18.50;61.90;;;;;;5060597;28;20040;-90
2021/05/31 14:35:01;;;;;;;2.15;0.40;;;18.40;62.30;;;;;;5058252;28;20038;-91
2021/05/31 14:37:27;;;;;;;0.73;0.43;;;18.20;62.60;;;;;;5061904;28;20049;-90
2021/05/31 14:39:54;;;;;;;0.88;0.40;;;18.20;62.90;;;;;;5062594;28;20048;-90
2021/05/31 14:42:23;;;;;;;3.90;0.60;;;18.10;62.90;;;;;;5069463;28;20037;-90
2021/05/31 14:44:50;;;;;;;2.13;0.47;;;18.00;63.10;;;;;;5051620;28;20029;-90
2021/05/31 14:47:15;;;;;;;1.05;0.55;;;18.00;63.30;;;;;;5047318;28;20037;-90
2021/05/31 14:49:42;;;;;;;2.20;0.70;;;17.90;63.40;;;;;;5046350;28;20127;-90
2021/05/31 14:52:11;;;;;;;1.33;0.63;;;17.90;63.50;;;;;;5060708;28;20056;-91
2021/05/31 14:54:37;;;;;;;2.00;0.77;;;17.80;63.40;;;;;;5059898;28;20037;-91
2021/05/31 14:57:03;;;;;;;1.70;0.60;;;17.70;63.80;;;;;;5061021;28;20120;-90
2021/05/31 14:59:29;;;;;;;1.52;0.65;;;17.60;64.20;;;;;;5059745;28;20065;-88
2021/05/31 15:01:55;;;;;;;2.42;0.68;;;17.60;64.50;;;;;;5042002;28;20037;-89
2021/05/31 15:04:21;;;;;;;1.65;0.98;;;17.60;64.80;;;;;;5044948;28;20065;-88
2021/05/31 15:06:47;;;;;;;2.00;0.57;;;17.60;64.50;;;;;;5062518;28;20029;-89
2021/05/31 15:09:13;;;;;;;1.13;0.70;;;17.50;64.20;;;;;;5065454;28;20069;-89
2021/05/31 15:11:39;;;;;;;0.60;0.60;;;17.40;64.30;;;;;;5073860;28;20049;-90
2021/05/31 15:14:05;;;;;;;0.80;0.77;;;17.30;64.30;;;;;;5061833;28;20379;-91
2021/05/31 15:16:33;;;;;;;1.00;0.90;;;17.20;64.70;;;;;;5058894;28;20032;-91
2021/05/31 15:18:59;;;;;;;2.88;1.00;;;17.10;65.10;;;;;;5059431;28;20033;-91
2021/05/31 15:21:30;;;;;;;0.80;0.80;;;17.10;65.40;;;;;;5061790;28;20116;-91
2021/05/31 15:23:56;;;;;;;1.10;1.00;;;17.00;65.70;;;;;;5060690;28;20033;-91
2021/05/31 15:26:25;;;;;;;1.13;1.00;;;16.90;65.50;;;;;;5061148;28;20037;-90
2021/05/31 15:28:51;;;;;;;1.02;0.93;;;16.80;65.70;;;;;;5067278;28;20056;-90
2021/05/31 15:31:17;;;;;;;2.17;0.90;;;16.80;65.80;;;;;;5048081;28;20397;-90
2021/05/31 15:33:44;;;;;;;2.13;0.90;;;16.70;65.80;;;;;;5059481;28;20045;-90
2021/05/31 15:36:11;;;;;;;0.75;0.75;;;16.60;66.10;;;;;;5061827;28;20426;-90
2021/05/31 15:38:37;;;;;;;3.28;0.95;;;16.60;66.30;;;;;;5061714;28;20037;-90
2021/05/31 15:41:04;;;;;;;1.50;0.90;;;16.60;66.30;;;;;;5059654;28;20035;-89